createdAt,value
2022-07-30T00:00:01.667Z,959.0100
2022-07-30T00:00:12.733Z,959.0100
2022-07-30T00:00:29.717Z,958.9900
2022-07-30T00:00:40.915Z,959.0100
2022-07-30T00:00:52.005Z,959.0100
2022-07-30T00:01:03.115Z,959.0300
2022-07-30T00:01:14.269Z,959.0100
2022-07-30T00:01:25.393Z,959.0100
2022-07-30T00:01:36.499Z,959.0300
2022-07-30T00:01:47.570Z,959.0100
2022-07-30T00:01:58.617Z,959.0100
2022-07-30T00:02:09.682Z,959.0100
2022-07-30T00:02:20.749Z,959.0300
2022-07-30T00:02:31.809Z,959.0300
2022-07-30T00:02:42.875Z,959.0500
2022-07-30T00:02:53.952Z,959.0100
2022-07-30T00:03:05.014Z,959.0300
2022-07-30T00:03:16.163Z,959.0100
2022-07-30T00:03:27.428Z,959.0100
2022-07-30T00:03:38.533Z,959.0100
2022-07-30T00:03:49.707Z,959.0300
2022-07-30T00:04:03.028Z,959.0100
2022-07-30T00:04:14.138Z,959.0300
2022-07-30T00:04:25.208Z,959.0300
2022-07-30T00:04:36.272Z,959.0300
2022-07-30T00:04:47.338Z,959.0500
2022-07-30T00:04:58.409Z,959.0300
2022-07-30T00:05:10.109Z,959.0500
2022-07-30T00:05:21.179Z,959.0500
2022-07-30T00:05:32.277Z,959.0300
2022-07-30T00:05:43.332Z,959.0500
2022-07-30T00:05:54.388Z,959.0300
2022-07-30T00:06:05.438Z,959.0300
2022-07-30T00:06:16.508Z,959.0500
2022-07-30T00:06:27.569Z,959.0500
2022-07-30T00:06:38.642Z,959.0300
2022-07-30T00:06:49.677Z,959.0500
2022-07-30T00:07:01.340Z,959.0500
2022-07-30T00:07:12.643Z,959.0500
2022-07-30T00:07:23.718Z,959.0500
2022-07-30T00:07:34.789Z,959.0300
2022-07-30T00:07:45.859Z,959.0300
2022-07-30T00:07:56.928Z,959.0500
2022-07-30T00:08:07.978Z,959.0500
2022-07-30T00:08:19.050Z,959.0500
2022-07-30T00:08:30.118Z,959.0500
2022-07-30T00:08:41.162Z,959.0500
2022-07-30T00:08:52.287Z,959.0500
2022-07-30T00:09:03.483Z,959.0100
2022-07-30T00:09:14.565Z,959.0300
2022-07-30T00:09:25.604Z,959.0500
2022-07-30T00:09:36.678Z,959.0500
2022-07-30T00:09:47.758Z,959.0300
2022-07-30T00:09:58.822Z,959.0500
2022-07-30T00:10:09.893Z,959.0500
2022-07-30T00:10:20.970Z,959.0300
2022-07-30T00:10:32.051Z,959.0500
2022-07-30T00:10:43.168Z,959.0300
2022-07-30T00:10:55.259Z,959.0300
2022-07-30T00:11:06.488Z,959.0500
2022-07-30T00:11:17.548Z,959.0500
2022-07-30T00:11:28.608Z,959.0300
2022-07-30T00:11:39.957Z,959.0700
2022-07-30T00:11:50.997Z,959.0500
2022-07-30T00:12:02.076Z,959.0500
2022-07-30T00:12:13.949Z,959.0500
2022-07-30T00:12:25.019Z,959.0300
2022-07-30T00:12:36.184Z,959.0300
2022-07-30T00:12:47.228Z,959.0500
2022-07-30T00:12:58.288Z,959.0700
2022-07-30T00:13:09.482Z,959.0700
2022-07-30T00:13:25.338Z,959.0700
2022-07-30T00:13:36.399Z,959.0700
2022-07-30T00:13:47.475Z,959.0900
2022-07-30T00:13:58.538Z,959.1100
2022-07-30T00:14:09.745Z,959.0900
2022-07-30T00:14:20.813Z,959.0900
2022-07-30T00:14:31.877Z,959.0700
2022-07-30T00:14:42.934Z,959.0700
2022-07-30T00:14:53.977Z,959.0900
2022-07-30T00:15:05.037Z,959.0900
2022-07-30T00:15:16.121Z,959.0500
2022-07-30T00:15:27.187Z,959.0700
2022-07-30T00:15:39.012Z,959.0900
2022-07-30T00:15:50.116Z,959.0700
2022-07-30T00:16:01.185Z,959.0700
2022-07-30T00:16:12.286Z,959.0700
2022-07-30T00:16:23.415Z,959.1100
2022-07-30T00:16:34.529Z,959.0900
2022-07-30T00:16:45.738Z,959.0900
2022-07-30T00:16:56.923Z,959.0700
2022-07-30T00:17:08.334Z,959.0900
2022-07-30T00:17:19.797Z,959.0700
2022-07-30T00:17:30.847Z,959.0700
2022-07-30T00:17:43.159Z,959.0500
2022-07-30T00:17:58.205Z,959.0900
2022-07-30T00:18:09.268Z,959.0500
2022-07-30T00:18:23.139Z,959.0500
2022-07-30T00:18:34.198Z,959.0500
2022-07-30T00:18:45.878Z,959.0500
2022-07-30T00:18:57.157Z,959.0500
2022-07-30T00:19:09.219Z,959.0700
2022-07-30T00:19:20.332Z,959.0500
2022-07-30T00:19:33.196Z,959.0700
2022-07-30T00:19:44.277Z,959.0700
2022-07-30T00:19:55.957Z,959.0700
2022-07-30T00:20:07.477Z,959.0300
2022-07-30T00:20:18.701Z,959.0500
2022-07-30T00:20:29.797Z,959.0500
2022-07-30T00:20:44.264Z,959.0500
2022-07-30T00:20:55.506Z,959.0300
2022-07-30T00:21:07.645Z,959.0300
2022-07-30T00:21:38.890Z,959.0300
2022-07-30T00:21:39.377Z,959.0300
2022-07-30T00:21:50.497Z,959.0300
2022-07-30T00:22:01.563Z,959.0500
2022-07-30T00:22:12.640Z,959.0300
2022-07-30T00:22:23.737Z,959.0100
2022-07-30T00:22:34.939Z,959.0300
2022-07-30T00:22:46.010Z,959.0300
2022-07-30T00:22:57.089Z,959.0500
2022-07-30T00:23:08.148Z,959.0300
2022-07-30T00:23:19.230Z,959.0300
2022-07-30T00:23:30.310Z,959.0300
2022-07-30T00:23:41.367Z,959.0300
2022-07-30T00:24:01.943Z,959.0500
2022-07-30T00:24:13.532Z,959.0500
2022-07-30T00:24:24.572Z,959.0500
2022-07-30T00:24:35.821Z,959.0500
2022-07-30T00:24:46.870Z,959.0500
2022-07-30T00:24:57.940Z,959.0300
2022-07-30T00:25:09.599Z,959.0100
2022-07-30T00:25:20.722Z,959.0100
2022-07-30T00:25:31.765Z,959.0100
2022-07-30T00:25:42.819Z,959.0100
2022-07-30T00:25:53.869Z,959.0100
2022-07-30T00:26:05.143Z,959.0100
2022-07-30T00:26:18.618Z,959.0100
2022-07-30T00:26:29.674Z,959.0100
2022-07-30T00:26:40.764Z,959.0300
2022-07-30T00:26:52.117Z,959.0100
2022-07-30T00:27:03.545Z,959.0300
2022-07-30T00:27:14.710Z,959.0100
2022-07-30T00:27:25.771Z,959.0300
2022-07-30T00:27:36.973Z,959.0100
2022-07-30T00:27:48.052Z,959.0300
2022-07-30T00:27:59.109Z,959.0300
2022-07-30T00:28:10.306Z,959.0100
2022-07-30T00:28:21.380Z,958.9900
2022-07-30T00:28:32.448Z,959.0300
2022-07-30T00:28:43.519Z,959.0500
2022-07-30T00:28:54.577Z,959.0300
2022-07-30T00:29:05.654Z,959.0300
2022-07-30T00:29:16.723Z,959.0100
2022-07-30T00:29:27.803Z,959.0100
2022-07-30T00:29:38.998Z,959.0300
2022-07-30T00:29:55.966Z,959.0300
2022-07-30T00:30:07.014Z,959.0300
2022-07-30T00:30:18.083Z,959.0100
2022-07-30T00:30:29.172Z,959.0100
2022-07-30T00:30:40.512Z,959.0100
2022-07-30T00:30:54.916Z,959.0100
2022-07-30T00:31:07.588Z,958.9900
2022-07-30T00:31:18.710Z,959.0100
2022-07-30T00:31:29.770Z,959.0100
2022-07-30T00:31:40.945Z,959.0300
2022-07-30T00:31:52.037Z,959.0300
2022-07-30T00:32:03.108Z,959.0300
2022-07-30T00:32:14.399Z,959.0100
2022-07-30T00:32:25.478Z,959.0300
2022-07-30T00:32:36.583Z,959.0300
2022-07-30T00:32:47.649Z,959.0300
2022-07-30T00:32:58.718Z,959.0300
2022-07-30T00:33:09.786Z,959.0300
2022-07-30T00:33:21.056Z,959.0100
2022-07-30T00:33:32.142Z,959.0100
2022-07-30T00:33:43.199Z,959.0300
2022-07-30T00:33:54.273Z,959.0100
2022-07-30T00:34:05.331Z,959.0100
2022-07-30T00:34:16.418Z,959.0100
2022-07-30T00:34:27.489Z,959.0300
2022-07-30T00:34:38.577Z,959.0300
2022-07-30T00:34:49.648Z,959.0100
2022-07-30T00:35:00.718Z,959.0500
2022-07-30T00:35:11.779Z,959.0300
2022-07-30T00:35:22.839Z,959.0500
2022-07-30T00:35:33.888Z,959.0500
2022-07-30T00:35:44.959Z,959.0300
2022-07-30T00:35:56.028Z,959.0300
2022-07-30T00:36:07.097Z,959.0300
2022-07-30T00:36:18.197Z,959.0300
2022-07-30T00:36:29.268Z,959.0300
2022-07-30T00:36:40.328Z,959.0300
2022-07-30T00:36:51.398Z,959.0100
2022-07-30T00:37:02.985Z,959.0100
2022-07-30T00:37:14.368Z,959.0100
2022-07-30T00:37:25.451Z,959.0300
2022-07-30T00:37:36.519Z,959.0300
2022-07-30T00:37:47.610Z,959.0500
2022-07-30T00:37:58.650Z,959.0300
2022-07-30T00:38:09.688Z,959.0300
2022-07-30T00:38:20.759Z,959.0300
2022-07-30T00:38:31.828Z,959.0500
2022-07-30T00:38:42.914Z,959.0300
2022-07-30T00:38:53.978Z,959.0300
2022-07-30T00:39:05.650Z,959.0300
2022-07-30T00:39:16.724Z,959.0100
2022-07-30T00:39:27.769Z,959.0300
2022-07-30T00:39:38.838Z,959.0100
2022-07-30T00:39:49.935Z,959.0300
2022-07-30T00:40:01.000Z,958.9900
2022-07-30T00:40:12.079Z,958.9900
2022-07-30T00:40:23.307Z,958.9700
2022-07-30T00:40:34.359Z,958.9700
2022-07-30T00:40:45.415Z,958.9700
2022-07-30T00:40:56.485Z,958.9500
2022-07-30T00:41:07.643Z,959.0100
2022-07-30T00:41:18.736Z,959.0100
2022-07-30T00:41:29.864Z,959.0100
2022-07-30T00:41:40.912Z,959.0100
2022-07-30T00:41:51.984Z,959.0100
2022-07-30T00:42:03.055Z,959.0100
2022-07-30T00:42:14.139Z,958.9700
2022-07-30T00:42:25.333Z,958.9500
2022-07-30T00:42:36.406Z,958.9500
2022-07-30T00:42:47.443Z,958.9500
2022-07-30T00:42:58.506Z,958.9500
2022-07-30T00:43:09.575Z,959.0100
2022-07-30T00:43:20.642Z,958.9900
2022-07-30T00:43:31.713Z,958.9700
2022-07-30T00:43:42.793Z,958.9900
2022-07-30T00:43:53.981Z,958.9900
2022-07-30T00:44:05.056Z,958.9900
2022-07-30T00:44:16.103Z,958.9900
2022-07-30T00:44:27.507Z,958.9900
2022-07-30T00:44:41.158Z,958.9900
2022-07-30T00:44:52.287Z,958.9900
2022-07-30T00:45:03.355Z,959.0100
2022-07-30T00:45:14.436Z,959.0100
2022-07-30T00:45:25.543Z,958.9900
2022-07-30T00:45:36.643Z,959.0100
2022-07-30T00:45:47.713Z,958.9900
2022-07-30T00:45:58.756Z,958.9900
2022-07-30T00:46:10.015Z,959.0100
2022-07-30T00:46:21.143Z,958.9900
2022-07-30T00:46:32.294Z,958.9900
2022-07-30T00:46:43.343Z,959.0100
2022-07-30T00:46:54.412Z,959.0100
2022-07-30T00:47:05.476Z,959.0100
2022-07-30T00:47:16.582Z,958.9900
2022-07-30T00:47:27.742Z,958.9900
2022-07-30T00:47:38.802Z,958.9900
2022-07-30T00:47:49.863Z,958.9700
2022-07-30T00:48:00.947Z,958.9900
2022-07-30T00:48:11.976Z,958.9900
2022-07-30T00:48:23.029Z,958.9900
2022-07-30T00:48:34.092Z,958.9900
2022-07-30T00:48:45.244Z,958.9700
2022-07-30T00:48:56.409Z,958.9900
2022-07-30T00:49:07.534Z,958.9900
2022-07-30T00:49:21.034Z,958.9700
2022-07-30T00:49:32.101Z,958.9500
2022-07-30T00:49:44.483Z,958.9700
2022-07-30T00:49:55.562Z,958.9700
2022-07-30T00:50:06.641Z,958.9700
2022-07-30T00:50:17.695Z,958.9500
2022-07-30T00:50:30.121Z,958.9700
2022-07-30T00:50:41.651Z,958.9700
2022-07-30T00:50:56.324Z,958.9900
2022-07-30T00:51:08.496Z,958.9700
2022-07-30T00:51:19.531Z,958.9900
2022-07-30T00:51:30.631Z,959.0100
2022-07-30T00:51:42.132Z,959.0100
2022-07-30T00:51:53.171Z,959.0300
2022-07-30T00:52:04.237Z,959.0300
2022-07-30T00:52:15.315Z,959.0100
2022-07-30T00:52:26.372Z,959.0100
2022-07-30T00:52:37.423Z,959.0300
2022-07-30T00:52:48.493Z,959.0300
2022-07-30T00:52:59.553Z,959.0300
2022-07-30T00:53:10.611Z,959.0300
2022-07-30T00:53:21.682Z,959.0300
2022-07-30T00:53:32.750Z,959.0500
2022-07-30T00:53:43.851Z,959.0700
2022-07-30T00:53:54.922Z,959.0500
2022-07-30T00:54:06.000Z,959.0900
2022-07-30T00:54:17.043Z,959.0900
2022-07-30T00:54:28.111Z,959.0900
2022-07-30T00:54:39.172Z,959.0700
2022-07-30T00:54:50.223Z,959.0900
2022-07-30T00:55:01.302Z,959.0900
2022-07-30T00:55:12.372Z,959.0900
2022-07-30T00:55:23.432Z,959.0900
2022-07-30T00:55:34.501Z,959.0900
2022-07-30T00:55:45.562Z,959.0900
2022-07-30T00:55:56.612Z,959.0900
2022-07-30T00:56:07.680Z,959.1100
2022-07-30T00:56:18.762Z,959.0900
2022-07-30T00:56:29.811Z,959.0900
2022-07-30T00:56:40.899Z,959.0900
2022-07-30T00:56:52.408Z,959.0900
2022-07-30T00:57:03.661Z,959.0900
2022-07-30T00:57:14.747Z,959.1100
2022-07-30T00:57:25.826Z,959.0900
2022-07-30T00:57:37.388Z,959.1100
2022-07-30T00:57:50.517Z,959.1900
2022-07-30T00:58:02.348Z,959.0900
2022-07-30T00:58:13.418Z,959.0900
2022-07-30T00:58:24.627Z,959.0900
2022-07-30T00:58:35.676Z,959.0900
2022-07-30T00:58:46.744Z,959.0900
2022-07-30T00:58:57.794Z,959.0700
2022-07-30T00:59:08.867Z,959.0900
2022-07-30T00:59:19.928Z,959.0900
2022-07-30T00:59:30.999Z,959.1100
2022-07-30T00:59:42.092Z,959.0900
2022-07-30T00:59:53.281Z,959.0700
2022-07-30T01:00:04.347Z,959.0700
2022-07-30T01:00:15.405Z,959.0900
2022-07-30T01:00:26.457Z,959.1100
2022-07-30T01:00:37.496Z,959.0900
2022-07-30T01:00:48.633Z,959.1100
2022-07-30T01:00:59.845Z,959.1100
2022-07-30T01:01:11.021Z,959.0900
2022-07-30T01:01:22.195Z,959.0900
2022-07-30T01:01:33.361Z,959.0900
2022-07-30T01:01:44.621Z,959.1100
2022-07-30T01:01:55.906Z,959.1100
2022-07-30T01:02:06.982Z,959.0900
2022-07-30T01:02:18.061Z,959.1100
2022-07-30T01:02:29.503Z,959.1100
2022-07-30T01:02:40.701Z,959.1100
2022-07-30T01:02:51.768Z,959.0900
2022-07-30T01:03:02.837Z,959.1100
2022-07-30T01:03:13.897Z,959.1100
2022-07-30T01:03:24.970Z,959.0900
2022-07-30T01:03:36.034Z,959.0900
2022-07-30T01:03:47.105Z,959.0900
2022-07-30T01:03:58.169Z,959.1100
2022-07-30T01:04:09.239Z,959.1900
2022-07-30T01:04:20.294Z,959.1100
2022-07-30T01:04:31.373Z,959.1100
2022-07-30T01:04:42.472Z,959.1100
2022-07-30T01:04:53.511Z,959.1100
2022-07-30T01:05:04.620Z,959.1900
2022-07-30T01:05:15.661Z,959.1100
2022-07-30T01:05:26.732Z,959.1900
2022-07-30T01:05:37.812Z,959.1900
2022-07-30T01:05:48.871Z,959.1100
2022-07-30T01:06:00.077Z,959.1100
2022-07-30T01:06:14.168Z,959.1100
2022-07-30T01:06:25.622Z,959.1100
2022-07-30T01:06:36.660Z,959.1100
2022-07-30T01:06:47.766Z,959.1100
2022-07-30T01:06:59.066Z,959.1900
2022-07-30T01:07:10.422Z,959.1900
2022-07-30T01:07:21.464Z,959.1900
2022-07-30T01:07:35.380Z,959.1900
2022-07-30T01:07:46.456Z,959.1900
2022-07-30T01:07:57.518Z,959.1900
2022-07-30T01:08:08.583Z,959.2100
2022-07-30T01:08:19.664Z,959.2100
2022-07-30T01:08:30.974Z,959.1900
2022-07-30T01:08:42.033Z,959.2100
2022-07-30T01:08:53.084Z,959.2100
2022-07-30T01:09:04.165Z,959.1900
2022-07-30T01:09:15.233Z,959.1900
2022-07-30T01:09:26.302Z,959.2300
2022-07-30T01:09:37.364Z,959.2100
2022-07-30T01:09:48.560Z,959.2100
2022-07-30T01:09:59.687Z,959.2100
2022-07-30T01:10:10.754Z,959.2300
2022-07-30T01:10:21.803Z,959.1900
2022-07-30T01:10:32.874Z,959.2100
2022-07-30T01:10:43.923Z,959.2100
2022-07-30T01:10:54.990Z,959.2100
2022-07-30T01:11:07.315Z,959.2300
2022-07-30T01:11:18.394Z,959.2100
2022-07-30T01:11:29.477Z,959.2100
2022-07-30T01:11:40.528Z,959.2300
2022-07-30T01:11:51.618Z,959.2300
2022-07-30T01:12:02.657Z,959.1900
2022-07-30T01:12:13.723Z,959.1900
2022-07-30T01:12:24.763Z,959.2100
2022-07-30T01:12:35.846Z,959.1100
2022-07-30T01:12:46.929Z,959.1100
2022-07-30T01:12:57.995Z,959.1100
2022-07-30T01:13:09.033Z,959.2100
2022-07-30T01:13:20.262Z,959.1900
2022-07-30T01:13:31.319Z,959.1900
2022-07-30T01:13:42.384Z,959.2100
2022-07-30T01:13:53.455Z,959.1900
2022-07-30T01:14:04.527Z,959.1100
2022-07-30T01:14:15.594Z,959.1100
2022-07-30T01:14:26.711Z,959.1100
2022-07-30T01:14:37.791Z,959.1100
2022-07-30T01:14:48.849Z,959.1100
2022-07-30T01:14:59.923Z,959.1100
2022-07-30T01:15:10.997Z,959.0900
2022-07-30T01:15:22.072Z,959.1100
2022-07-30T01:15:33.158Z,959.1100
2022-07-30T01:15:44.203Z,959.1100
2022-07-30T01:15:55.403Z,959.1100
2022-07-30T01:16:06.488Z,959.1100
2022-07-30T01:16:17.600Z,959.1100
2022-07-30T01:16:28.854Z,959.0900
2022-07-30T01:16:39.990Z,959.1100
2022-07-30T01:16:51.140Z,959.0700
2022-07-30T01:17:02.756Z,959.0700
2022-07-30T01:17:14.182Z,959.0900
2022-07-30T01:17:25.425Z,959.0700
2022-07-30T01:17:36.474Z,959.0700
2022-07-30T01:17:47.620Z,959.0700
2022-07-30T01:18:04.520Z,959.0700
2022-07-30T01:18:15.592Z,959.0700
2022-07-30T01:18:26.817Z,959.0500
2022-07-30T01:18:37.884Z,959.0700
2022-07-30T01:18:48.939Z,959.0500
2022-07-30T01:19:00.128Z,959.0500
2022-07-30T01:19:11.187Z,959.0700
2022-07-30T01:19:22.272Z,959.0500
2022-07-30T01:19:33.332Z,959.0700
2022-07-30T01:19:44.399Z,959.0500
2022-07-30T01:19:55.458Z,959.0500
2022-07-30T01:20:06.529Z,959.0900
2022-07-30T01:20:19.259Z,959.0700
2022-07-30T01:20:30.609Z,959.0700
2022-07-30T01:20:41.688Z,959.0500
2022-07-30T01:20:52.770Z,959.0500
2022-07-30T01:21:03.857Z,959.0700
2022-07-30T01:21:14.917Z,959.0700
2022-07-30T01:21:26.117Z,959.0700
2022-07-30T01:21:37.189Z,959.0900
2022-07-30T01:21:48.267Z,959.0900
2022-07-30T01:21:59.600Z,959.0700
2022-07-30T01:22:10.700Z,959.0700
2022-07-30T01:22:21.767Z,959.0700
2022-07-30T01:22:35.577Z,959.0700
2022-07-30T01:22:46.655Z,959.0700
2022-07-30T01:22:57.729Z,959.0900
2022-07-30T01:23:08.795Z,959.0700
2022-07-30T01:23:19.856Z,959.0700
2022-07-30T01:23:31.098Z,959.0700
2022-07-30T01:23:43.229Z,959.0700
2022-07-30T01:23:54.526Z,959.0700
2022-07-30T01:24:05.577Z,959.0700
2022-07-30T01:24:16.648Z,959.0700
2022-07-30T01:24:27.698Z,959.0700
2022-07-30T01:24:38.767Z,959.0500
2022-07-30T01:24:49.847Z,959.0500
2022-07-30T01:25:00.938Z,959.0500
2022-07-30T01:25:11.976Z,959.0900
2022-07-30T01:25:23.016Z,959.0700
2022-07-30T01:25:34.204Z,959.0700
2022-07-30T01:25:45.257Z,959.0700
2022-07-30T01:25:56.336Z,959.0700
2022-07-30T01:26:07.960Z,959.0700
2022-07-30T01:26:19.042Z,959.0500
2022-07-30T01:26:30.110Z,959.0700
2022-07-30T01:26:41.176Z,959.0700
2022-07-30T01:26:52.397Z,959.0700
2022-07-30T01:27:03.519Z,959.0700
2022-07-30T01:27:19.712Z,959.0700
2022-07-30T01:27:31.296Z,959.0700
2022-07-30T01:27:42.335Z,959.0700
2022-07-30T01:27:53.436Z,959.0900
2022-07-30T01:28:04.496Z,959.0900
2022-07-30T01:28:18.570Z,959.0700
2022-07-30T01:28:29.776Z,959.0700
2022-07-30T01:28:40.842Z,959.0700
2022-07-30T01:28:51.893Z,959.0900
2022-07-30T01:29:02.966Z,959.0900
2022-07-30T01:29:14.053Z,959.0900
2022-07-30T01:29:25.250Z,959.1100
2022-07-30T01:29:36.298Z,959.0700
2022-07-30T01:29:47.370Z,959.0900
2022-07-30T01:29:58.416Z,959.0700
2022-07-30T01:30:09.509Z,959.0900
2022-07-30T01:30:20.571Z,959.0700
2022-07-30T01:30:31.987Z,959.0700
2022-07-30T01:30:46.066Z,959.1100
2022-07-30T01:31:01.090Z,959.0900
2022-07-30T01:31:12.269Z,959.0900
2022-07-30T01:31:23.385Z,959.0900
2022-07-30T01:31:34.452Z,959.1100
2022-07-30T01:31:45.524Z,959.0900
2022-07-30T01:31:56.781Z,959.0700
2022-07-30T01:32:07.829Z,959.1100
2022-07-30T01:32:18.906Z,959.0900
2022-07-30T01:32:30.094Z,959.0900
2022-07-30T01:32:41.168Z,959.0900
2022-07-30T01:32:52.254Z,959.0900
2022-07-30T01:33:03.328Z,959.0900
2022-07-30T01:33:14.400Z,959.0900
2022-07-30T01:33:25.462Z,959.0900
2022-07-30T01:33:36.528Z,959.0700
2022-07-30T01:33:47.577Z,959.0700
2022-07-30T01:33:58.957Z,959.0700
2022-07-30T01:34:10.002Z,959.0900
2022-07-30T01:34:21.061Z,959.0700
2022-07-30T01:34:32.288Z,959.0900
2022-07-30T01:34:43.346Z,959.0900
2022-07-30T01:34:54.421Z,959.0900
2022-07-30T01:35:05.503Z,959.0900
2022-07-30T01:35:16.568Z,959.0900
2022-07-30T01:35:27.662Z,959.0700
2022-07-30T01:35:38.732Z,959.0500
2022-07-30T01:35:49.807Z,959.0700
2022-07-30T01:36:01.008Z,959.0900
2022-07-30T01:36:12.081Z,959.0900
2022-07-30T01:36:23.138Z,959.0700
2022-07-30T01:36:34.335Z,959.0700
2022-07-30T01:36:45.379Z,959.0900
2022-07-30T01:36:56.438Z,959.0900
2022-07-30T01:37:07.499Z,959.0700
2022-07-30T01:37:18.538Z,959.0900
2022-07-30T01:37:31.718Z,959.0900
2022-07-30T01:37:42.767Z,959.1100
2022-07-30T01:37:53.835Z,959.0900
2022-07-30T01:38:05.098Z,959.0900
2022-07-30T01:38:16.188Z,959.0900
2022-07-30T01:38:27.249Z,959.1100
2022-07-30T01:38:42.163Z,959.1100
2022-07-30T01:38:53.233Z,959.0700
2022-07-30T01:39:04.425Z,959.0700
2022-07-30T01:39:15.488Z,959.0700
2022-07-30T01:39:26.572Z,959.0700
2022-07-30T01:39:37.638Z,959.0700
2022-07-30T01:39:48.718Z,959.0900
2022-07-30T01:39:59.782Z,959.0900
2022-07-30T01:40:10.849Z,959.0900
2022-07-30T01:40:21.930Z,959.0900
2022-07-30T01:40:33.000Z,959.0900
2022-07-30T01:40:44.087Z,959.0900
2022-07-30T01:40:55.148Z,959.0700
2022-07-30T01:41:06.348Z,959.0900
2022-07-30T01:41:17.399Z,959.0700
2022-07-30T01:41:28.468Z,959.0500
2022-07-30T01:41:39.516Z,959.0700
2022-07-30T01:41:50.585Z,959.0700
2022-07-30T01:42:01.658Z,959.0500
2022-07-30T01:42:12.728Z,959.0500
2022-07-30T01:42:23.794Z,959.1100
2022-07-30T01:42:34.890Z,959.1100
2022-07-30T01:42:45.955Z,959.0500
2022-07-30T01:42:57.003Z,959.0500
2022-07-30T01:43:08.209Z,959.0700
2022-07-30T01:43:19.272Z,959.0700
2022-07-30T01:43:30.337Z,959.0700
2022-07-30T01:43:41.401Z,959.0900
2022-07-30T01:43:52.442Z,959.0500
2022-07-30T01:44:03.492Z,959.0700
2022-07-30T01:44:14.613Z,959.0700
2022-07-30T01:44:31.563Z,959.0900
2022-07-30T01:44:42.611Z,959.0700
2022-07-30T01:44:53.677Z,959.0700
2022-07-30T01:45:04.739Z,959.0700
2022-07-30T01:45:15.810Z,959.0700
2022-07-30T01:45:27.088Z,959.0700
2022-07-30T01:45:42.031Z,959.0900
2022-07-30T01:45:55.198Z,959.0900
2022-07-30T01:46:06.326Z,959.0700
2022-07-30T01:46:17.477Z,959.0900
2022-07-30T01:46:28.685Z,959.0700
2022-07-30T01:46:39.734Z,959.0700
2022-07-30T01:46:50.801Z,959.0700
2022-07-30T01:47:04.136Z,959.0700
2022-07-30T01:47:15.192Z,959.0700
2022-07-30T01:47:26.650Z,959.0700
2022-07-30T01:47:37.738Z,959.0700
2022-07-30T01:47:48.859Z,959.0900
2022-07-30T01:48:00.131Z,959.0900
2022-07-30T01:48:11.296Z,959.0900
2022-07-30T01:48:22.369Z,959.0700
2022-07-30T01:48:33.439Z,959.0700
2022-07-30T01:48:44.641Z,959.0700
2022-07-30T01:48:55.707Z,959.0700
2022-07-30T01:49:06.850Z,959.0700
2022-07-30T01:49:20.553Z,959.0700
2022-07-30T01:49:31.815Z,959.0700
2022-07-30T01:49:42.885Z,959.0900
2022-07-30T01:49:53.953Z,959.0700
2022-07-30T01:50:05.011Z,959.0700
2022-07-30T01:50:16.083Z,959.0700
2022-07-30T01:50:27.108Z,959.0900
2022-07-30T01:50:38.188Z,959.0900
2022-07-30T01:50:49.258Z,959.0900
2022-07-30T01:51:00.457Z,959.0700
2022-07-30T01:51:11.497Z,959.0700
2022-07-30T01:51:22.560Z,959.0700
2022-07-30T01:51:37.504Z,959.0700
2022-07-30T01:51:49.059Z,959.0500
2022-07-30T01:52:00.238Z,959.0700
2022-07-30T01:52:11.298Z,959.0500
2022-07-30T01:52:22.344Z,959.0700
2022-07-30T01:52:33.548Z,959.0700
2022-07-30T01:52:44.647Z,959.0900
2022-07-30T01:52:56.988Z,959.0700
2022-07-30T01:53:08.149Z,959.0900
2022-07-30T01:53:19.234Z,959.0900
2022-07-30T01:53:30.277Z,959.0700
2022-07-30T01:53:41.348Z,959.0900
2022-07-30T01:53:52.429Z,959.0700
2022-07-30T01:54:03.524Z,959.0900
2022-07-30T01:54:14.589Z,959.0700
2022-07-30T01:54:25.661Z,959.0700
2022-07-30T01:54:36.865Z,959.0900
2022-07-30T01:54:47.933Z,959.0700
2022-07-30T01:54:58.991Z,959.0700
2022-07-30T01:55:11.550Z,959.0700
2022-07-30T01:55:27.031Z,959.0900
2022-07-30T01:55:38.109Z,959.0900
2022-07-30T01:55:49.186Z,959.1100
2022-07-30T01:56:00.247Z,959.0900
2022-07-30T01:56:11.527Z,959.1100
2022-07-30T01:56:24.812Z,959.0900
2022-07-30T01:56:36.229Z,959.1100
2022-07-30T01:56:47.279Z,959.0900
2022-07-30T01:56:58.653Z,959.0900
2022-07-30T01:57:09.950Z,959.0900
2022-07-30T01:57:20.988Z,959.1100
2022-07-30T01:57:32.041Z,959.0900
2022-07-30T01:57:43.109Z,959.0900
2022-07-30T01:57:54.297Z,959.1100
2022-07-30T01:58:05.361Z,959.0900
2022-07-30T01:58:16.428Z,959.1100
2022-07-30T01:58:27.509Z,959.0700
2022-07-30T01:58:38.711Z,959.0900
2022-07-30T01:58:49.789Z,959.0700
2022-07-30T01:59:00.860Z,959.0700
2022-07-30T01:59:11.900Z,959.0900
2022-07-30T01:59:22.958Z,959.0700
2022-07-30T01:59:34.021Z,959.0700
2022-07-30T01:59:45.082Z,959.0900
2022-07-30T01:59:56.154Z,959.0900
2022-07-30T02:00:07.224Z,959.0900
2022-07-30T02:00:18.290Z,959.0700
2022-07-30T02:00:29.371Z,959.0700
2022-07-30T02:00:41.135Z,959.0700
2022-07-30T02:00:52.220Z,959.0700
2022-07-30T02:01:03.292Z,959.0900
2022-07-30T02:01:16.664Z,959.0900
2022-07-30T02:01:27.818Z,959.0900
2022-07-30T02:01:38.922Z,959.0700
2022-07-30T02:01:49.992Z,959.0700
2022-07-30T02:02:01.032Z,959.0700
2022-07-30T02:02:12.219Z,959.0900
2022-07-30T02:02:29.358Z,959.0900
2022-07-30T02:02:40.415Z,959.0700
2022-07-30T02:02:51.454Z,959.0900
2022-07-30T02:03:02.563Z,959.0700
2022-07-30T02:03:13.708Z,959.0700
2022-07-30T02:03:24.850Z,959.0700
2022-07-30T02:03:37.614Z,959.0700
2022-07-30T02:03:48.733Z,959.0900
2022-07-30T02:03:59.843Z,959.0900
2022-07-30T02:04:10.882Z,959.0900
2022-07-30T02:04:21.951Z,959.0900
2022-07-30T02:04:32.996Z,959.0900
2022-07-30T02:04:44.880Z,959.1100
2022-07-30T02:04:55.937Z,959.1100
2022-07-30T02:05:07.027Z,959.0900
2022-07-30T02:05:18.147Z,959.0900
2022-07-30T02:05:29.338Z,959.0900
2022-07-30T02:05:40.402Z,959.0700
2022-07-30T02:05:53.087Z,959.0900
2022-07-30T02:06:04.283Z,959.0900
2022-07-30T02:06:15.356Z,959.1100
2022-07-30T02:06:26.429Z,959.0900
2022-07-30T02:06:37.495Z,959.1100
2022-07-30T02:06:48.587Z,959.0900
2022-07-30T02:07:01.631Z,959.0900
2022-07-30T02:07:13.244Z,959.0900
2022-07-30T02:07:24.312Z,959.1900
2022-07-30T02:07:35.388Z,959.1900
2022-07-30T02:07:46.449Z,959.1100
2022-07-30T02:07:57.519Z,959.1900
2022-07-30T02:08:08.977Z,959.1900
2022-07-30T02:08:20.020Z,959.1100
2022-07-30T02:08:31.081Z,959.1900
2022-07-30T02:08:42.148Z,959.1100
2022-07-30T02:08:53.229Z,959.1900
2022-07-30T02:09:10.860Z,959.1100
2022-07-30T02:09:21.241Z,959.1100
2022-07-30T02:09:32.311Z,959.1100
2022-07-30T02:09:47.288Z,959.1100
2022-07-30T02:09:58.691Z,959.1900
2022-07-30T02:10:09.761Z,959.1900
2022-07-30T02:10:20.830Z,959.1100
2022-07-30T02:10:31.931Z,959.1100
2022-07-30T02:10:42.979Z,959.1100
2022-07-30T02:10:54.028Z,959.1900
2022-07-30T02:11:05.214Z,959.1100
2022-07-30T02:11:16.267Z,959.1100
2022-07-30T02:11:27.337Z,959.1100
2022-07-30T02:11:44.299Z,959.0900
2022-07-30T02:11:55.347Z,959.0500
2022-07-30T02:12:06.567Z,959.0500
2022-07-30T02:12:17.635Z,959.0500
2022-07-30T02:12:28.706Z,959.0500
2022-07-30T02:12:39.965Z,959.0500
2022-07-30T02:12:51.028Z,959.0700
2022-07-30T02:13:02.101Z,959.0500
2022-07-30T02:13:13.213Z,959.0300
2022-07-30T02:13:24.262Z,959.0500